createdAt,value
2023-04-16T00:09:56.788Z,7.65
2023-04-16T00:14:58.304Z,6.85
2023-04-16T00:19:59.811Z,8.43
2023-04-16T00:25:01.234Z,11.30
2023-04-16T00:30:03.521Z,11.02
2023-04-16T00:35:05.475Z,6.30
2023-04-16T00:40:07.406Z,6.22
2023-04-16T00:45:09.869Z,6.43
2023-04-16T00:50:12.065Z,11.60
2023-04-16T00:55:13.731Z,5.90
2023-04-16T01:05:16.895Z,13.35
2023-04-16T01:10:18.339Z,16.65
2023-04-16T01:15:19.928Z,16.15
2023-04-16T01:20:21.626Z,14.75
2023-04-16T01:30:25.048Z,15.88
2023-04-16T01:35:38.150Z,10.93
2023-04-16T01:40:39.621Z,15.20
2023-04-16T01:45:41.086Z,6.88
2023-04-16T01:50:42.550Z,7.07
2023-04-16T02:00:50.669Z,8.80
2023-04-16T02:05:52.317Z,14.15
2023-04-16T02:10:54.062Z,12.38
2023-04-16T02:15:55.575Z,12.15
2023-04-16T02:21:11.247Z,15.90
2023-04-16T02:26:13.645Z,7.90
2023-04-16T02:31:19.389Z,16.42
2023-04-16T02:36:22.557Z,11.50
2023-04-16T02:41:24.333Z,13.13
2023-04-16T02:51:27.736Z,9.18
2023-04-16T02:56:29.260Z,12.68
2023-04-16T03:01:30.749Z,12.55
2023-04-16T03:06:32.649Z,9.32
2023-04-16T03:11:34.154Z,10.82
2023-04-16T03:16:35.603Z,7.93
2023-04-16T03:21:37.110Z,12.80
2023-04-16T03:26:38.571Z,10.60
2023-04-16T03:36:42.332Z,10.25
2023-04-16T03:41:43.970Z,12.68
2023-04-16T03:46:45.592Z,11.23
2023-04-16T03:51:47.430Z,11.07
2023-04-16T04:01:51.924Z,12.77
2023-04-16T04:06:53.501Z,12.57
2023-04-16T04:11:55.342Z,12.57
2023-04-16T04:21:58.576Z,13.00
2023-04-16T04:32:02.474Z,9.57
2023-04-16T04:37:05.642Z,11.15
2023-04-16T04:42:07.238Z,11.75
2023-04-16T04:47:08.829Z,9.00
2023-04-16T04:52:13.412Z,11.25
2023-04-16T04:57:15.883Z,7.97
2023-04-16T05:02:18.491Z,11.80
2023-04-16T05:07:19.984Z,8.63
2023-04-16T05:12:21.427Z,9.23
2023-04-16T05:17:23.005Z,12.90
2023-04-16T05:22:24.750Z,9.05
2023-04-16T05:32:27.879Z,10.20
2023-04-16T05:37:29.501Z,7.43
2023-04-16T05:42:31.068Z,9.98
2023-04-16T05:47:32.637Z,9.00
2023-04-16T05:52:34.232Z,6.28
2023-04-16T05:57:35.989Z,13.18
2023-04-16T06:07:39.148Z,10.13
2023-04-16T06:12:40.735Z,12.13
2023-04-16T06:17:42.236Z,13.60
2023-04-16T06:22:43.855Z,16.63
2023-04-16T06:27:45.339Z,11.65
2023-04-16T06:32:46.993Z,15.82
2023-04-16T06:37:48.681Z,9.45
2023-04-16T06:42:50.143Z,15.65
2023-04-16T06:47:52.344Z,14.20
2023-04-16T06:52:54.681Z,13.60
2023-04-16T06:57:56.196Z,12.60
2023-04-16T07:02:58.718Z,18.00
2023-04-16T07:08:00.306Z,16.60
2023-04-16T07:13:01.851Z,14.60
2023-04-16T07:18:03.326Z,15.40
2023-04-16T07:23:04.860Z,14.18
2023-04-16T07:28:06.411Z,15.23
2023-04-16T07:33:07.912Z,18.08
2023-04-16T07:38:09.377Z,13.75
2023-04-16T07:43:10.976Z,14.85
2023-04-16T07:48:12.437Z,15.48
2023-04-16T07:53:13.940Z,17.38
2023-04-16T07:58:15.387Z,11.30
2023-04-16T08:03:17.057Z,18.40
2023-04-16T08:08:18.640Z,17.40
2023-04-16T08:13:20.137Z,18.33
2023-04-16T08:18:21.611Z,16.83
2023-04-16T08:23:23.086Z,18.08
2023-04-16T08:28:24.541Z,19.25
2023-04-16T08:33:26.374Z,18.10
2023-04-16T08:38:27.870Z,16.77
2023-04-16T08:43:33.956Z,18.60
2023-04-16T08:48:37.533Z,21.02
2023-04-16T08:54:09.142Z,21.45
2023-04-16T08:59:10.986Z,17.38
2023-04-16T09:04:14.676Z,19.58
2023-04-16T09:09:17.581Z,20.10
2023-04-16T09:14:19.619Z,20.25
2023-04-16T09:19:21.264Z,17.08
2023-04-16T09:24:22.925Z,19.73
2023-04-16T09:29:39.059Z,20.92
2023-04-16T09:35:00.913Z,19.05
2023-04-16T09:40:04.126Z,18.80
2023-04-16T09:45:06.396Z,12.70
2023-04-16T09:50:11.297Z,13.35
2023-04-16T09:55:14.023Z,12.13
2023-04-16T10:05:20.112Z,9.70
2023-04-16T10:10:22.212Z,9.82
2023-04-16T10:15:23.754Z,6.97
2023-04-16T10:20:26.185Z,13.90
2023-04-16T10:25:28.745Z,5.28
2023-04-16T10:30:30.928Z,7.68
2023-04-16T10:35:32.401Z,8.57
2023-04-16T10:40:35.133Z,6.80
2023-04-16T10:45:39.620Z,9.32
2023-04-16T10:50:41.458Z,7.22
2023-04-16T10:55:56.685Z,9.52
2023-04-16T11:01:06.379Z,10.48
2023-04-16T11:06:17.625Z,12.85
2023-04-16T11:11:19.647Z,10.80
2023-04-16T11:16:21.117Z,14.57
2023-04-16T11:21:23.346Z,12.77
2023-04-16T11:26:27.229Z,8.35
2023-04-16T11:31:28.857Z,12.23
2023-04-16T11:36:46.065Z,8.80
2023-04-16T11:41:49.480Z,13.75
2023-04-16T11:46:52.042Z,7.90
2023-04-16T11:51:53.556Z,7.68
2023-04-16T11:56:55.120Z,7.65
2023-04-16T12:01:56.683Z,7.80
2023-04-16T12:07:13.103Z,6.97
2023-04-16T12:12:28.038Z,6.53
2023-04-16T12:17:31.840Z,7.80
2023-04-16T12:22:37.225Z,6.78
2023-04-16T12:27:52.756Z,7.88
2023-04-16T12:33:17.999Z,5.55
2023-04-16T12:38:19.958Z,7.95
2023-04-16T12:43:22.704Z,5.80
2023-04-16T12:48:24.151Z,7.53
2023-04-16T12:53:26.081Z,11.07
2023-04-16T12:58:27.525Z,10.25
2023-04-16T13:03:29.100Z,7.72
2023-04-16T13:08:30.730Z,7.50
2023-04-16T13:13:32.417Z,7.40
2023-04-16T13:18:34.878Z,6.60
2023-04-16T13:23:36.412Z,8.15
2023-04-16T13:28:37.861Z,8.10
2023-04-16T13:33:39.415Z,9.88
2023-04-16T13:38:42.147Z,6.82
2023-04-16T13:43:43.596Z,6.20
2023-04-16T13:48:46.100Z,8.57
2023-04-16T13:53:47.734Z,5.90
2023-04-16T13:58:49.446Z,6.65
2023-04-16T14:03:51.044Z,6.25
2023-04-16T14:08:52.534Z,6.45
2023-04-16T14:13:53.974Z,6.38
2023-04-16T14:18:55.409Z,7.63
2023-04-16T14:23:56.948Z,5.40
2023-04-16T14:28:58.387Z,6.70
2023-04-16T14:33:59.857Z,6.32
2023-04-16T14:39:01.399Z,4.93
2023-04-16T14:44:04.239Z,5.10
2023-04-16T14:49:05.698Z,4.05
2023-04-16T14:54:07.335Z,5.35
2023-04-16T14:59:09.097Z,3.75
2023-04-16T15:04:10.996Z,5.05
2023-04-16T15:09:12.704Z,5.35
2023-04-16T15:14:14.333Z,4.20
2023-04-16T15:19:16.005Z,5.32
2023-04-16T15:24:17.463Z,3.95
2023-04-16T15:29:18.892Z,4.82
2023-04-16T15:34:20.457Z,5.25
2023-04-16T15:39:21.912Z,7.03
2023-04-16T15:44:23.405Z,4.78
2023-04-16T15:49:25.334Z,7.38
2023-04-16T15:54:27.149Z,8.80
2023-04-16T15:59:29.081Z,5.47
2023-04-16T16:04:30.798Z,8.20
2023-04-16T16:09:32.303Z,6.13
2023-04-16T16:14:33.766Z,7.32
2023-04-16T16:19:35.257Z,6.43
2023-04-16T16:24:36.868Z,7.10
2023-04-16T16:29:38.361Z,8.60
2023-04-16T16:34:39.812Z,10.27
2023-04-16T16:39:41.397Z,9.35
2023-04-16T16:44:42.893Z,12.68
2023-04-16T16:49:45.605Z,11.80
2023-04-16T16:54:47.121Z,15.35
2023-04-16T16:59:50.407Z,15.30
2023-04-16T17:04:52.796Z,15.30
2023-04-16T17:09:54.298Z,15.57
2023-04-16T17:14:56.063Z,13.95
2023-04-16T17:19:57.557Z,14.07
2023-04-16T17:24:59.126Z,15.43
2023-04-16T17:30:01.917Z,16.00
2023-04-16T17:35:04.327Z,16.90
2023-04-16T17:40:07.900Z,16.45
2023-04-16T17:45:09.872Z,20.70
2023-04-16T17:50:12.065Z,20.52
2023-04-16T17:55:13.776Z,15.38
2023-04-16T18:00:16.173Z,18.08
2023-04-16T18:05:18.962Z,13.02
2023-04-16T18:10:20.518Z,15.65
2023-04-16T18:15:21.994Z,10.68
2023-04-16T18:20:23.449Z,12.82
2023-04-16T18:30:36.289Z,15.27
2023-04-16T18:35:39.182Z,13.82
2023-04-16T18:40:42.084Z,11.80
2023-04-16T18:45:45.299Z,12.77
2023-04-16T18:50:46.745Z,12.90
2023-04-16T19:00:59.781Z,13.10
2023-04-16T19:06:01.476Z,12.73
2023-04-16T19:11:03.331Z,15.27
2023-04-16T19:16:11.158Z,12.82
2023-04-16T19:21:12.943Z,12.80
2023-04-16T19:31:16.473Z,10.27
2023-04-16T19:36:18.234Z,10.98
2023-04-16T19:41:19.724Z,8.07
2023-04-16T19:51:22.911Z,5.53
2023-04-16T19:56:24.767Z,7.75
2023-04-16T20:01:26.333Z,6.63
2023-04-16T20:06:27.849Z,8.10
2023-04-16T20:16:32.002Z,8.35
2023-04-16T20:21:33.508Z,8.57
2023-04-16T20:26:36.465Z,6.85
2023-04-16T20:31:37.945Z,8.98
2023-04-16T20:41:44.906Z,6.95
2023-04-16T20:46:49.510Z,8.48
2023-04-16T20:51:51.330Z,9.70
2023-04-16T20:56:52.762Z,9.73
2023-04-16T21:06:56.687Z,11.05
2023-04-16T21:16:59.530Z,13.63
2023-04-16T21:27:04.273Z,16.20
2023-04-16T21:37:08.291Z,18.00
2023-04-16T21:42:09.748Z,18.00
2023-04-16T21:52:18.266Z,13.27
2023-04-16T21:57:19.791Z,17.35
2023-04-16T22:07:22.855Z,14.30
2023-04-16T22:12:24.328Z,16.17
2023-04-16T22:17:27.648Z,15.57
2023-04-16T22:22:29.174Z,16.83
2023-04-16T22:27:30.634Z,18.55
2023-04-16T22:32:33.122Z,15.75
2023-04-16T22:37:34.596Z,16.35
2023-04-16T22:42:36.116Z,12.90
2023-04-16T22:47:37.611Z,16.30
2023-04-16T22:52:39.098Z,14.85
2023-04-16T22:57:40.552Z,12.38
2023-04-16T23:07:43.715Z,17.40
2023-04-16T23:12:45.503Z,16.23
2023-04-16T23:17:47.020Z,17.13
2023-04-16T23:27:49.926Z,9.32
2023-04-16T23:32:51.516Z,15.82
2023-04-16T23:42:54.365Z,15.63
2023-04-16T23:47:56.054Z,15.27
2023-04-16T23:52:57.539Z,17.73
2023-04-16T23:57:59.002Z,18.00
